METAR Data
IDs: Format: Raw Decoded Include TAF

Data at: 0753 UTC 07 Dec 2022

KSXT 070656Z AUTO 13007KT 6SM BR CLR M01/M02 A3008 RMK AO2 SLP213 T10061022
KSXT 070556Z AUTO 14007KT 5SM BR CLR M01/M02 A3009 RMK AO2 SLP215 T10061017 10006 21006 51005
KSXT 070456Z AUTO 13006KT 6SM BR CLR M01/M02 A3008 RMK AO2 SLP214 T10061017
KSXT 070356Z AUTO 12006KT 8SM CLR M01/M02 A3008 RMK AO2 SLP212 T10061022
KSXT 070256Z AUTO 11006KT 10SM CLR M01/M02 A3007 RMK AO2 SLP210 T10061017 51004
KSXT 070156Z AUTO 12006KT 10SM CLR 00/M02 A3007 RMK AO2 SLP208 T00001017
KSXT 070056Z AUTO 12007KT 9SM CLR 00/M01 A3006 RMK AO2 SLP207 T00001011
KSXT 070015Z AUTO 12007KT 3SM BR CLR 01/M01 A3006 RMK AO2 T00061011
KSXT 070003Z AUTO 13005KT 1 3/4SM BR FEW002 00/M01 A3006 RMK AO2 T00001011
KSXT 062356Z AUTO 12006KT 3SM BR FEW002 01/M01 A3006 RMK AO2 SLP203 T00061011 10022 21006 51003
KSXT 062349Z AUTO 13006KT 2SM BR FEW002 01/M01 A3006 RMK AO2 VIS 1 1/2V4 T00061006
KSXT 062256Z AUTO 12005KT 7SM SCT002 01/00 A3005 RMK AO2 SLP199 T00110000
KSXT 062244Z AUTO 12005KT 3SM BR BKN002 01/00 A3005 RMK AO2 T00110000
KSXT 062234Z AUTO 13004KT 1 3/4SM BR BKN002 01/00 A3005 RMK AO2 T00110000
KSXT 062219Z AUTO VRB04KT 5SM BR BKN002 02/00 A3006 RMK AO2 T00170000
KSXT 062211Z AUTO 11004KT 2 1/2SM BR BKN002 01/00 A3005 RMK AO2 VIS 1 1/4V5 T00110000
KSXT 062156Z AUTO 13005KT 4SM BR BKN002 01/00 A3005 RMK AO2 SLP202 T00060000
KSXT 062146Z AUTO 13005KT 2SM BR OVC002 01/00 A3005 RMK AO2 VIS 1V4 T00110000
KSXT 062132Z AUTO 12004KT 3SM BR OVC002 01/00 A3005 RMK AO2 T00110000
KSXT 062128Z AUTO 12004KT 1 3/4SM BR OVC002 01/01 A3005 RMK AO2 T00110006
KSXT 062119Z AUTO 14006KT 1SM BR VV002 01/01 A3005 RMK AO2 T00110006
KSXT 062111Z AUTO VRB03KT 1/4SM FG VV002 01/01 A3005 RMK AO2 T00110006
KSXT 062104Z AUTO 15004KT M1/4SM FG VV001 01/00 A3005 RMK AO2 T00060000
KSXT 062056Z AUTO 15007KT 1/4SM FG OVC002 01/00 A3005 RMK AO2 SLP197 T00110000 56005
KSXT 062050Z AUTO 14007KT 1/2SM FG OVC002 02/01 A3005 RMK AO2
KSXT 062041Z AUTO 14005KT 2 1/2SM BR BKN002 01/01 A3005 RMK AO2 VIS 1V5 T00110006
KSXT 062025Z AUTO 13005KT 4SM BR BKN002 01/00 A3005 RMK AO2 T00110000
KSXT 062015Z AUTO VRB05KT 2SM BR BKN002 01/00 A3005 RMK AO2 VIS 1 1/4V5 T00060000
KSXT 062006Z AUTO VRB04KT 1 1/2SM BR OVC002 01/M01 A3005 RMK AO2 VIS 3/4V4 T00061006
KSXT 061956Z AUTO 13005KT 3/4SM BR OVC002 01/00 A3005 RMK AO2 SLP198 T00060000
KSXT 061951Z AUTO 12005KT 3/4SM BR OVC002 01/M01 A3005 RMK AO2
KSXT 061944Z AUTO 09003KT 1SM BR OVC002 01/00 A3006 RMK AO2 VIS 1/2V3 T00060000
KSXT 061923Z AUTO 13005KT 3/4SM BR OVC002 00/M01 A3006 RMK AO2 T00001006
KSXT 061905Z AUTO 13005KT 1/4SM FG VV002 00/M01 A3006 RMK AO2 T00001006
KSXT 061856Z AUTO 15004KT M1/4SM FG VV002 00/M01 A3006 RMK AO2 SLP205 T00001006
KSXT 061756Z AUTO 12003KT M1/4SM FZFG VV002 M01/M01 A3005 RMK AO2 SLP201 I1002 I6003 T10061011 11006 21011 53010
KSXT 061656Z AUTO 13006KT M1/4SM FZFG VV002 M01/M01 A3004 RMK AO2 SLP196 T10061011
KSXT 061604Z AUTO VRB03KT M1/4SM FZFG VV002 M01/M01 A3003 RMK AO2 T10061011
KSXT 061556Z AUTO 13005KT 1/4SM FZFG VV002 M01/M01 A3003 RMK AO2 SLP193 T10061011
KSXT 061532Z AUTO VRB03KT 1/4SM FZFG VV002 M01/M01 A3003 RMK AO2 T10061011
KSXT 061514Z AUTO 12003KT 1/4SM FZFG VV001 M01/M01 A3002 RMK AO2 T10061011
KSXT 061507Z AUTO 13003KT M1/4SM FZFG VV001 M01/M01 A3002 RMK AO2 T10061011
KSXT 061456Z AUTO 14003KT 1/4SM FZFG VV002 M01/M01 A3002 RMK AO2 SLP189 I3001 T10061011 53009
KSXT 061411Z AUTO 15004KT 1/4SM FZFG VV002 M01/M01 A3000 RMK AO2 T10111011
KSXT 061356Z AUTO 14004KT 1/4SM FZFG VV001 M01/M02 A3000 RMK AO2 SLP184 T10111017
KSXT 061256Z AUTO 14005KT M1/4SM FZFG VV001 M01/M02 A2998 RMK AO2 SLP177 I1001 T10111017
KSXT 061217Z AUTO 13006KT 1/4SM FZFG VV001 M01/M02 A2998 RMK AO2 T10111022
KSXT 061209Z AUTO 12004KT M1/4SM FZFG VV001 M01/M02 A2998 RMK AO2 T10111022
KSXT 061156Z AUTO 14004KT 1/4SM FZFG VV001 M01/M02 A2999 RMK AO2 SLP178 70001 I6002 T10061017 10000 21011 50001
KSXT 061147Z AUTO 13004KT 1 1/2SM BR SCT001 M01/M02 A2998 RMK AO2 T10061017
KSXT 061139Z AUTO 14005KT 1SM BR VV001 M01/M02 A2999 RMK AO2 T10061017
KSXT 061135Z AUTO 13004KT 1 3/4SM BR FEW002 M01/M02 A2999 RMK AO2 VIS 3/4V5 T10061017
KSXT 061115Z AUTO 12005KT 6SM BR FEW001 M01/M02 A2999 RMK AO2 T10061017
KSXT 061107Z AUTO 11004KT 2SM BR SCT001 M01/M02 A2999 RMK AO2 T10061017
KSXT 061105Z AUTO 11004KT 1SM BR VV001 M01/M02 A2999 RMK AO2 T10061017
KSXT 061056Z AUTO 11005KT 1/4SM FZFG VV001 M01/M01 A2999 RMK AO2 SLP178 I1001 T10061011
KSXT 061033Z AUTO 11003KT 1/4SM FZFG VV001 M01/M01 A2999 RMK AO2 I1000 T10061011
KSXT 061027Z AUTO 11003KT 1SM BR VV002 M01/M02 A2999 RMK AO2 I1000 T10061017
KSXT 061024Z AUTO 11003KT 2 1/2SM BR BKN002 M01/M02 A2999 RMK AO2 I1000 T10061017
KSXT 061019Z AUTO 11004KT 3SM BR SCT002 M01/M02 A2999 RMK AO2 I1000 T10061017
KSXT 060956Z AUTO 11004KT 9SM CLR M01/M02 A2999 RMK AO2 SLP173 I1000 T10061017
KSXT 060926Z AUTO 11004KT 4SM BR FEW001 M01/M02 A2998 RMK AO2 T10061017
KSXT 060856Z AUTO 00000KT 9SM CLR M01/M02 A2998 RMK AO2 SLP172 I1001 I3001 T10061017 52006
KSXT 060823Z AUTO 00000KT 10SM SCT007 SCT015 M01/M01 A2998 RMK AO2 T10061011
KSXT 060815Z AUTO 00000KT 10SM SCT013 M01/M01 A2998 RMK AO2 T10061011
KSXT 060756Z AUTO 00000KT 8SM SCT009 OVC013 00/M01 A2998 RMK AO2 SLP168 T00001011 400391006
KSXT 060707Z AUTO 00000KT 7SM OVC006 00/M01 A2997 RMK AO2 CIG 003V009 T00001011
KSXT 060656Z AUTO 00000KT 7SM BKN004 OVC008 00/M01 A2997 RMK AO2 SLP166 I1000 T00001006
KSXT 060646Z AUTO 11003KT 8SM OVC004 00/M01 A2997 RMK AO2 I1000 T00001006
KSXT 060638Z AUTO 00000KT 9SM BKN005 00/M01 A2997 RMK AO2 T00001006
KSXT 060627Z AUTO 00000KT 10SM SCT005 00/M01 A2997 RMK AO2 T00001006
KSXT 060556Z AUTO 03005KT 5SM BR CLR 00/M01 A2996 RMK AO2 SLP164 T00001011 10011 20000 51011
KSXT 060529Z AUTO 02005KT 2SM BR SCT001 00/M01 A2996 RMK AO2 VIS 1V4 T00001006
KSXT 060523Z AUTO 02005KT 1 1/4SM BR SCT001 00/M01 A2996 RMK AO2 VIS 3/4V3 T00001006
KSXT 060516Z AUTO 01006KT 3/4SM BR VV001 00/M01 A2995 RMK AO2 T00001006
KSXT 060456Z AUTO 01006KT 1/4SM FG VV001 00/M01 A2995 RMK AO2 SLP164 T00001006
KSXT 060409Z AUTO 36005KT 1/4SM FG VV001 00/M01 A2994 RMK AO2 T00001006
KSXT 060401Z AUTO 36005KT 1/2SM FG VV001 00/M01 A2994 RMK AO2 T00001011
KSXT 060358Z AUTO 36005KT 1 3/4SM BR FEW001 00/M01 A2994 RMK AO2 T00001011
KSXT 060356Z AUTO 36005KT 4SM BR FEW001 00/M01 A2994 RMK AO2 SLP160 T00001011
KSXT 060256Z AUTO 01003KT 10SM CLR 00/M01 A2993 RMK AO2 SLP157 T00001011 51004
KSXT 060156Z AUTO 35003KT 10SM FEW001 FEW033 00/M01 A2992 RMK AO2 SLP156 T00001011
KSXT 060148Z AUTO 34003KT 2 1/2SM BR SCT001 SCT033 00/M01 A2992 RMK AO2 T00001011
KSXT 060146Z AUTO 34003KT 1SM BR SCT001 BKN033 00/M01 A2992 RMK AO2 T00001011
KSXT 060141Z AUTO 34003KT 1/2SM FG BKN001 BKN035 00/M01 A2992 RMK AO2 T00001006
KSXT 060132Z AUTO 35003KT 1/2SM FG SCT001 BKN036 00/M01 A2992 RMK AO2 T00001006
KSXT 060125Z AUTO 34004KT 1/4SM FG BKN001 BKN038 00/M01 A2992 RMK AO2 T00001006
KSXT 060118Z AUTO 34004KT 1/2SM FG BKN002 OVC038 00/M01 A2992 RMK AO2 T00001006
KSXT 060056Z AUTO 33004KT 1/4SM FG VV002 01/00 A2991 RMK AO2 SLP150 T00060000
KSXT 060045Z AUTO 33004KT 1/4SM FG VV001 00/M01 A2991 RMK AO2 T00001006
KSXT 060041Z AUTO 33004KT 1SM BR VV001 00/M01 A2991 RMK AO2 T00001006
KSXT 060039Z AUTO 33004KT 2SM BR SCT001 00/M01 A2991 RMK AO2 T00001006
KSXT 060013Z AUTO 34004KT 10SM SCT020 00/M01 A2991 RMK AO2 T00001011
KSXT 052356Z AUTO 00000KT 10SM BKN019 01/00 A2990 RMK AO2 SLP147 60000 T00060000 10039 20006 53007
KSXT 052256Z AUTO 00000KT 10SM BKN016 BKN021 02/M01 A2989 RMK AO2 SLP140 T00171006
KSXT 052219Z AUTO 33003KT 10SM SCT005 OVC016 02/01 A2989 RMK AO2 T00220006
KSXT 052158Z AUTO 00000KT 3SM BR OVC006 02/01 A2989 RMK AO2 T00220006
KSXT 052156Z AUTO VRB03KT 1 3/4SM BR OVC006 03/01 A2989 RMK AO2 SLP136 T00280011
KSXT 052147Z AUTO 00000KT 1/2SM FG OVC007 02/01 A2988 RMK AO2 T00220011
KSXT 052137Z AUTO 00000KT 1 1/4SM BR BKN007 OVC014 03/01 A2988 RMK AO2 T00280011
KSXT 052120Z AUTO VRB04KT 10SM BKN005 04/01 A2988 RMK AO2 T00390011
KSXT 052105Z AUTO VRB04KT 3SM BR BKN003 BKN007 02/01 A2988 RMK AO2 T00220011
KSXT 052056Z AUTO VRB03KT 8SM BKN005 02/01 A2988 RMK AO2 UPB22E31 SLP136 P0000 60000 T00220006 56007
KSXT 052050Z AUTO 00000KT 3SM BR BKN002 BKN007 02/01 A2988 RMK AO2 UPB22E31 P0000
KSXT 052047Z AUTO 22004KT 3/4SM BR VV002 03/01 A2988 RMK AO2 UPB22E31 P0000 T00280011
KSXT 052040Z AUTO 19004KT 1/4SM FG VV002 02/01 A2988 RMK AO2 UPB22E31 P0000 T00220011
KSXT 052022Z AUTO VRB03KT M1/4SM UP FG VV002 02/02 A2988 RMK AO2 UPB22 P0000 T00220017
KSXT 052011Z AUTO 00000KT 1/4SM FG BKN003 OVC007 03/02 A2988 RMK AO2 T00280017
KSXT 051956Z AUTO VRB03KT 1/2SM FG OVC003 03/01 A2989 RMK AO2 VIS M1/4V3 SLP137 T00280011